Beauvallon, South Africa
Current Conditions -  °F | °C
As of 12:00 PM on Friday 31 Oct 2014 (Local Time) from FAUP Reporting Station
Scattered Clouds Scattered Clouds  
Wind Chill: 84°   Ceiling: Unl
Heat Index: 84°   Visibility: 6mi
Dew Point: 32°   Wind: 6mph
Humidity: 15%   Direction: 180°S
Pressure: 29.94"   Gusts: NA
Location:  28.5°S, 16.63°E
Report Text: FAUP 311000Z 18005KT 9999 FEW050 SCT100 29/M00 Q1014 NOSIG
Loading
Personal Weather Stations






























Interactive Weather Map
Tropical Storm Tracking
New forecast layout! Learn more

10-Day Weather Forecast

Advertisements
Track Severe Weather on mobile